createdAt,value
2022-12-14T00:09:37.705Z,923.9
2022-12-14T00:20:34.647Z,923.9
2022-12-14T00:36:40.806Z,924
2022-12-14T00:48:28.951Z,924
2022-12-14T00:55:00.224Z,924
2022-12-14T01:00:06.041Z,924
2022-12-14T01:21:48.701Z,923.9
2022-12-14T01:38:04.708Z,924.1
2022-12-14T01:51:15.585Z,924.1
2022-12-14T02:07:19.201Z,924.1
2022-12-14T02:12:29.219Z,923.8
2022-12-14T02:23:19.641Z,923.8
2022-12-14T02:30:30.926Z,923.8
2022-12-14T02:36:06.412Z,923.8
2022-12-14T02:41:20.485Z,923.8
2022-12-14T02:51:53.218Z,923.6
2022-12-14T02:57:08.007Z,923.4
2022-12-14T03:03:56.198Z,923.5
2022-12-14T03:09:11.907Z,923.4
2022-12-14T03:19:58.764Z,923.5
2022-12-14T03:31:01.457Z,923.5
2022-12-14T03:41:16.008Z,923.5
2022-12-14T03:46:24.606Z,923.3
2022-12-14T04:07:49.887Z,923.3
2022-12-14T04:18:23.807Z,923.1
2022-12-14T04:23:34.986Z,923
2022-12-14T04:28:47.020Z,922.9
2022-12-14T04:33:59.895Z,922.9
2022-12-14T04:39:12.029Z,923
2022-12-14T04:49:49.556Z,922.9
2022-12-14T04:55:00.835Z,922.9
2022-12-14T05:00:10.717Z,922.7
2022-12-14T05:05:26.417Z,922.7
2022-12-14T05:10:40.388Z,922.7
2022-12-14T05:15:57.096Z,922.7
2022-12-14T05:21:07.951Z,922.6
2022-12-14T05:42:24.269Z,922.6
2022-12-14T05:47:40.233Z,922.6
2022-12-14T05:58:17.034Z,922.6
2022-12-14T06:03:43.047Z,922.5
2022-12-14T06:08:58.020Z,922.5
2022-12-14T06:19:33.723Z,922.5
2022-12-14T06:24:50.264Z,922.5
2022-12-14T06:31:24.316Z,922.5
2022-12-14T06:36:31.877Z,922.5
2022-12-14T06:41:55.008Z,922.5
2022-12-14T06:47:12.527Z,922.5
2022-12-14T06:52:32.492Z,922.5
2022-12-14T06:57:56.925Z,922.5
2022-12-14T07:03:18.900Z,922.3
2022-12-14T07:08:28.811Z,922.3
2022-12-14T07:24:46.214Z,922.1
2022-12-14T07:37:02.033Z,922.1
2022-12-14T07:45:05.501Z,922.1
2022-12-14T07:50:25.813Z,921.9
2022-12-14T08:02:04.844Z,921.9
2022-12-14T08:07:20.337Z,921.9
2022-12-14T08:12:38.476Z,921.8
2022-12-14T08:17:50.473Z,921.7
2022-12-14T08:23:01.206Z,921.8
2022-12-14T08:33:38.154Z,921.8
2022-12-14T08:44:10.517Z,921.6
2022-12-14T08:49:33.236Z,921.6
2022-12-14T08:54:44.171Z,921.6
2022-12-14T09:00:03.830Z,921.6
2022-12-14T09:05:10.491Z,921.6
2022-12-14T09:10:25.712Z,921.5
2022-12-14T09:26:20.058Z,921.6
2022-12-14T09:36:57.956Z,921.6
2022-12-14T09:42:15.344Z,921.6
2022-12-14T09:47:28.462Z,921.6
2022-12-14T09:52:44.011Z,921.7
2022-12-14T09:57:57.549Z,921.8
2022-12-14T10:03:09.301Z,921.7
2022-12-14T10:08:27.612Z,921.7
2022-12-14T10:13:50.477Z,921.7
2022-12-14T10:29:36.629Z,921.5
2022-12-14T10:40:35.709Z,921.1
2022-12-14T10:56:05.325Z,921.4
2022-12-14T11:06:36.601Z,921.6
2022-12-14T11:11:51.305Z,921.6
2022-12-14T11:17:01.731Z,921.7
2022-12-14T11:22:15.929Z,921.5
2022-12-14T11:27:24.340Z,921.4
2022-12-14T11:32:35.858Z,921.2
2022-12-14T11:37:51.192Z,921.2
2022-12-14T11:43:06.232Z,921.2
2022-12-14T11:48:20.286Z,921
2022-12-14T11:53:33.366Z,920.9
2022-12-14T11:58:42.067Z,920.8
2022-12-14T12:04:00.219Z,920.8
2022-12-14T12:09:12.749Z,920.8
2022-12-14T12:14:24.548Z,920.6
2022-12-14T12:19:41.540Z,920.5
2022-12-14T12:25:37.918Z,920.4
2022-12-14T12:35:26.734Z,917.9
2022-12-14T12:40:36.766Z,914.3
2022-12-14T12:51:08.388Z,914.9
2022-12-14T12:56:18.426Z,915.1
2022-12-14T13:01:30.254Z,915.8
2022-12-14T13:06:40.727Z,916.3
2022-12-14T13:11:53.056Z,917.1
2022-12-14T13:17:05.065Z,918
2022-12-14T13:22:16.128Z,918.5
2022-12-14T13:27:28.245Z,919.3
2022-12-14T13:32:38.528Z,919.6
2022-12-14T13:37:50.101Z,919.7
2022-12-14T13:43:02.762Z,920
2022-12-14T13:48:15.204Z,920.4
2022-12-14T13:53:26.492Z,920.9
2022-12-14T13:58:43.598Z,920.9
2022-12-14T14:03:55.792Z,921
2022-12-14T14:14:27.449Z,920.8
2022-12-14T14:19:38.193Z,920.9
2022-12-14T14:24:56.704Z,920.9
2022-12-14T14:30:07.165Z,921.1
2022-12-14T14:35:19.029Z,921.3
2022-12-14T14:41:19.944Z,921.3
2022-12-14T14:45:43.498Z,921.8
2022-12-14T14:56:20.087Z,921.8
2022-12-14T15:01:36.763Z,921.8
2022-12-14T15:06:47.069Z,921.9
2022-12-14T15:12:02.264Z,921.9
2022-12-14T15:17:14.708Z,922.2
2022-12-14T15:22:25.873Z,922.3
2022-12-14T15:27:37.019Z,922.2
2022-12-14T15:32:54.585Z,922.2
2022-12-14T15:38:06.867Z,922.3
2022-12-14T15:48:43.960Z,922.3
2022-12-14T15:53:55.488Z,922.4
2022-12-14T16:04:29.477Z,922.6
2022-12-14T16:15:02.475Z,922.9
2022-12-14T16:30:56.776Z,923.1
2022-12-14T16:46:51.181Z,923
2022-12-14T17:02:47.826Z,923.1
2022-12-14T17:08:02.306Z,923.1
2022-12-14T17:18:41.365Z,923.1
2022-12-14T17:23:51.666Z,922.9
2022-12-14T17:29:03.468Z,923.1
2022-12-14T17:34:22.722Z,923.1
2022-12-14T17:39:38.672Z,923.1
2022-12-14T17:50:10.485Z,923.3
2022-12-14T18:06:05.671Z,923.4
2022-12-14T18:11:28.801Z,923.4
2022-12-14T18:16:49.414Z,923.4
2022-12-14T18:22:02.267Z,923.4
2022-12-14T18:27:14.695Z,923.5
2022-12-14T18:32:26.771Z,923.4
2022-12-14T18:37:42.669Z,923.4
2022-12-14T18:43:02.804Z,923.4
2022-12-14T18:48:13.471Z,923.6
2022-12-14T18:53:30.759Z,923.6
2022-12-14T18:58:44.520Z,923.6
2022-12-14T19:03:56.963Z,923.4
2022-12-14T19:25:14.559Z,923.4
2022-12-14T19:30:32.088Z,923.4
2022-12-14T19:41:06.538Z,923.4
2022-12-14T19:46:24.555Z,923.6
2022-12-14T19:51:39.688Z,923.6
2022-12-14T19:56:52.133Z,923.4
2022-12-14T20:02:04.411Z,923.6
2022-12-14T20:07:17.402Z,923.6
2022-12-14T20:12:29.825Z,923.7
2022-12-14T20:17:40.910Z,923.9
2022-12-14T20:22:56.272Z,923.9
2022-12-14T20:28:10.980Z,923.9
2022-12-14T20:38:49.710Z,924
2022-12-14T20:44:05.204Z,924
2022-12-14T20:49:21.463Z,924
2022-12-14T20:54:39.876Z,923.8
2022-12-14T20:59:49.644Z,924.2
2022-12-14T21:05:00.234Z,924
2022-12-14T21:10:13.567Z,924
2022-12-14T21:15:30.426Z,924
2022-12-14T21:20:49.673Z,924
2022-12-14T21:25:57.950Z,924
2022-12-14T21:31:13.073Z,924
2022-12-14T21:36:24.340Z,924
2022-12-14T21:41:40.582Z,924
2022-12-14T21:46:53.467Z,924.2
2022-12-14T21:52:08.313Z,924.2
2022-12-14T21:57:23.161Z,924.2
2022-12-14T22:02:38.014Z,924
2022-12-14T22:07:50.893Z,924
2022-12-14T22:13:08.654Z,924
2022-12-14T22:18:20.488Z,924.3
2022-12-14T22:23:45.206Z,924.3
2022-12-14T22:34:29.598Z,924.3
2022-12-14T22:39:48.624Z,924.3
2022-12-14T22:44:53.926Z,924.5
2022-12-14T22:50:37.138Z,924.5
2022-12-14T22:55:50.425Z,924.7
2022-12-14T23:06:21.888Z,924.8
2022-12-14T23:11:36.606Z,924.8
2022-12-14T23:22:18.342Z,924.6
2022-12-14T23:27:32.978Z,924.6
2022-12-14T23:32:45.385Z,924.4
2022-12-14T23:43:19.911Z,924.3
2022-12-14T23:48:32.180Z,924.4
2022-12-14T23:53:52.811Z,924.4
